Terminal Aerodrome Forecast
Issued by NWS

Home | Current Version | Previous Version | Text Only | Print | Product List | Glossary On
Versions: 1 2 3 4 5 6 7 8 9 10 11 12 13 14 15 16 17 18 19 20 21 22 23 24 25
508
FTUS43 KDVN 151731
TAFCID
TAF
KCID 151731Z 1518/1618 25013G20KT P6SM BKN050
     FM152300 23008KT P6SM SCT100
     FM160200 20008KT P6SM BKN100
     FM161200 18005KT P6SM SKC=

USA.gov is the U.S. government's official web portal to all federal, state and local government web resources and services.